sensor_id;sensor_type;location;lat;lon;timestamp;P1;durP1;ratioP1;P2;durP2;ratioP2
73474;SDS011;61711;52.266;10.542;2023-03-23T00:00:00;7.65;;;2.70;;
73474;SDS011;61711;52.266;10.542;2023-03-23T00:02:26;5.95;;;2.50;;
73474;SDS011;61711;52.266;10.542;2023-03-23T00:04:53;7.57;;;2.92;;
73474;SDS011;61711;52.266;10.542;2023-03-23T00:07:20;7.05;;;3.35;;
73474;SDS011;61711;52.266;10.542;2023-03-23T00:09:49;8.10;;;2.97;;
73474;SDS011;61711;52.266;10.542;2023-03-23T00:12:22;8.00;;;2.83;;
73474;SDS011;61711;52.266;10.542;2023-03-23T00:14:54;4.72;;;2.72;;
73474;SDS011;61711;52.266;10.542;2023-03-23T00:17:20;8.48;;;3.13;;
73474;SDS011;61711;52.266;10.542;2023-03-23T00:19:46;7.43;;;2.50;;
73474;SDS011;61711;52.266;10.542;2023-03-23T00:22:13;5.60;;;2.63;;
73474;SDS011;61711;52.266;10.542;2023-03-23T00:24:39;6.22;;;2.72;;
73474;SDS011;61711;52.266;10.542;2023-03-23T00:27:06;5.90;;;2.67;;
73474;SDS011;61711;52.266;10.542;2023-03-23T00:29:33;5.53;;;2.53;;
73474;SDS011;61711;52.266;10.542;2023-03-23T00:31:59;6.47;;;3.00;;
73474;SDS011;61711;52.266;10.542;2023-03-23T00:34:26;6.80;;;2.63;;
73474;SDS011;61711;52.266;10.542;2023-03-23T00:36:57;6.47;;;2.53;;
73474;SDS011;61711;52.266;10.542;2023-03-23T00:39:23;4.57;;;2.53;;
73474;SDS011;61711;52.266;10.542;2023-03-23T00:41:50;8.18;;;2.50;;
73474;SDS011;61711;52.266;10.542;2023-03-23T00:44:16;3.28;;;2.45;;
73474;SDS011;61711;52.266;10.542;2023-03-23T00:46:43;3.35;;;1.92;;
73474;SDS011;61711;52.266;10.542;2023-03-23T00:49:13;2.22;;;1.80;;
73474;SDS011;61711;52.266;10.542;2023-03-23T00:51:40;3.90;;;1.63;;
73474;SDS011;61711;52.266;10.542;2023-03-23T00:54:06;3.42;;;1.90;;
73474;SDS011;61711;52.266;10.542;2023-03-23T00:56:33;4.32;;;1.85;;
73474;SDS011;61711;52.266;10.542;2023-03-23T00:58:59;2.88;;;1.55;;
73474;SDS011;61711;52.266;10.542;2023-03-23T01:01:25;3.22;;;1.73;;
73474;SDS011;61711;52.266;10.542;2023-03-23T01:03:51;3.17;;;1.42;;
73474;SDS011;61711;52.266;10.542;2023-03-23T01:06:25;2.13;;;1.50;;
73474;SDS011;61711;52.266;10.542;2023-03-23T01:08:52;4.10;;;1.58;;
73474;SDS011;61711;52.266;10.542;2023-03-23T01:11:18;2.08;;;1.40;;
73474;SDS011;61711;52.266;10.542;2023-03-23T01:13:45;4.95;;;1.70;;
73474;SDS011;61711;52.266;10.542;2023-03-23T01:16:11;2.60;;;1.40;;
73474;SDS011;61711;52.266;10.542;2023-03-23T01:18:38;2.85;;;1.50;;
73474;SDS011;61711;52.266;10.542;2023-03-23T01:21:09;3.08;;;1.60;;
73474;SDS011;61711;52.266;10.542;2023-03-23T01:23:35;5.95;;;1.70;;
73474;SDS011;61711;52.266;10.542;2023-03-23T01:26:11;3.67;;;1.70;;
73474;SDS011;61711;52.266;10.542;2023-03-23T01:28:38;2.47;;;1.77;;
73474;SDS011;61711;52.266;10.542;2023-03-23T01:31:06;4.47;;;2.13;;
73474;SDS011;61711;52.266;10.542;2023-03-23T01:33:32;3.67;;;2.05;;
73474;SDS011;61711;52.266;10.542;2023-03-23T01:36:02;3.30;;;1.92;;
73474;SDS011;61711;52.266;10.542;2023-03-23T01:38:29;4.53;;;1.90;;
73474;SDS011;61711;52.266;10.542;2023-03-23T01:40:56;3.35;;;1.80;;
73474;SDS011;61711;52.266;10.542;2023-03-23T01:43:21;4.72;;;1.60;;
73474;SDS011;61711;52.266;10.542;2023-03-23T01:45:47;2.17;;;1.50;;
73474;SDS011;61711;52.266;10.542;2023-03-23T01:48:27;5.05;;;1.80;;
73474;SDS011;61711;52.266;10.542;2023-03-23T01:50:55;3.35;;;1.52;;
73474;SDS011;61711;52.266;10.542;2023-03-23T01:53:25;2.38;;;1.70;;
73474;SDS011;61711;52.266;10.542;2023-03-23T01:55:52;3.03;;;1.60;;
73474;SDS011;61711;52.266;10.542;2023-03-23T01:58:20;1.95;;;1.67;;
73474;SDS011;61711;52.266;10.542;2023-03-23T02:00:47;2.17;;;1.58;;
73474;SDS011;61711;52.266;10.542;2023-03-23T02:03:13;2.50;;;1.60;;
73474;SDS011;61711;52.266;10.542;2023-03-23T02:05:42;5.68;;;1.67;;
73474;SDS011;61711;52.266;10.542;2023-03-23T02:08:08;4.35;;;1.75;;
73474;SDS011;61711;52.266;10.542;2023-03-23T02:10:35;6.13;;;1.80;;
73474;SDS011;61711;52.266;10.542;2023-03-23T02:13:02;2.88;;;1.60;;
73474;SDS011;61711;52.266;10.542;2023-03-23T02:16:14;2.72;;;1.67;;
73474;SDS011;61711;52.266;10.542;2023-03-23T02:25:58;3.08;;;2.20;;
73474;SDS011;61711;52.266;10.542;2023-03-23T02:33:35;4.32;;;2.60;;
73474;SDS011;61711;52.266;10.542;2023-03-23T02:36:23;5.57;;;2.63;;
73474;SDS011;61711;52.266;10.542;2023-03-23T02:38:56;5.57;;;3.15;;
73474;SDS011;61711;52.266;10.542;2023-03-23T02:41:25;6.50;;;3.08;;
73474;SDS011;61711;52.266;10.542;2023-03-23T02:43:53;7.20;;;3.08;;
73474;SDS011;61711;52.266;10.542;2023-03-23T02:46:20;5.53;;;3.00;;
73474;SDS011;61711;52.266;10.542;2023-03-23T02:48:47;5.00;;;2.92;;
73474;SDS011;61711;52.266;10.542;2023-03-23T02:51:16;8.23;;;2.35;;
73474;SDS011;61711;52.266;10.542;2023-03-23T02:53:43;3.72;;;2.10;;
73474;SDS011;61711;52.266;10.542;2023-03-23T02:56:10;4.47;;;1.95;;
73474;SDS011;61711;52.266;10.542;2023-03-23T02:58:38;4.07;;;2.10;;
73474;SDS011;61711;52.266;10.542;2023-03-23T03:01:14;3.22;;;2.00;;
73474;SDS011;61711;52.266;10.542;2023-03-23T03:03:42;3.65;;;1.80;;
73474;SDS011;61711;52.266;10.542;2023-03-23T03:08:53;4.00;;;2.10;;
73474;SDS011;61711;52.266;10.542;2023-03-23T03:11:21;3.53;;;1.83;;
73474;SDS011;61711;52.266;10.542;2023-03-23T03:13:55;3.50;;;1.90;;
73474;SDS011;61711;52.266;10.542;2023-03-23T03:16:34;2.85;;;1.83;;
73474;SDS011;61711;52.266;10.542;2023-03-23T03:19:07;3.50;;;1.98;;
73474;SDS011;61711;52.266;10.542;2023-03-23T03:21:37;4.05;;;1.95;;
73474;SDS011;61711;52.266;10.542;2023-03-23T03:24:04;3.08;;;1.85;;
73474;SDS011;61711;52.266;10.542;2023-03-23T03:26:36;4.00;;;2.00;;
73474;SDS011;61711;52.266;10.542;2023-03-23T03:29:03;3.42;;;1.58;;
73474;SDS011;61711;52.266;10.542;2023-03-23T03:31:32;4.28;;;2.25;;
73474;SDS011;61711;52.266;10.542;2023-03-23T03:33:58;3.17;;;1.90;;
73474;SDS011;61711;52.266;10.542;2023-03-23T03:36:27;2.67;;;2.15;;
73474;SDS011;61711;52.266;10.542;2023-03-23T03:38:59;4.70;;;2.08;;
73474;SDS011;61711;52.266;10.542;2023-03-23T03:41:26;2.83;;;1.98;;
73474;SDS011;61711;52.266;10.542;2023-03-23T03:43:52;5.13;;;2.15;;
73474;SDS011;61711;52.266;10.542;2023-03-23T03:46:18;2.83;;;2.00;;
73474;SDS011;61711;52.266;10.542;2023-03-23T03:48:44;2.40;;;1.98;;
73474;SDS011;61711;52.266;10.542;2023-03-23T03:51:11;4.68;;;2.30;;
73474;SDS011;61711;52.266;10.542;2023-03-23T03:53:36;3.20;;;2.00;;
73474;SDS011;61711;52.266;10.542;2023-03-23T03:56:03;2.75;;;1.85;;
73474;SDS011;61711;52.266;10.542;2023-03-23T03:58:30;2.78;;;2.00;;
73474;SDS011;61711;52.266;10.542;2023-03-23T04:00:57;2.90;;;2.03;;
73474;SDS011;61711;52.266;10.542;2023-03-23T04:03:23;3.55;;;2.03;;
73474;SDS011;61711;52.266;10.542;2023-03-23T04:05:50;4.13;;;2.10;;
73474;SDS011;61711;52.266;10.542;2023-03-23T04:08:17;4.20;;;2.08;;
73474;SDS011;61711;52.266;10.542;2023-03-23T04:10:44;4.35;;;2.00;;
73474;SDS011;61711;52.266;10.542;2023-03-23T04:13:10;4.15;;;2.30;;
73474;SDS011;61711;52.266;10.542;2023-03-23T04:15:36;6.63;;;2.40;;
73474;SDS011;61711;52.266;10.542;2023-03-23T04:18:03;4.40;;;2.47;;
73474;SDS011;61711;52.266;10.542;2023-03-23T04:20:30;4.10;;;2.70;;
73474;SDS011;61711;52.266;10.542;2023-03-23T04:22:56;5.40;;;2.95;;
73474;SDS011;61711;52.266;10.542;2023-03-23T04:25:22;8.82;;;3.92;;
73474;SDS011;61711;52.266;10.542;2023-03-23T04:27:49;5.57;;;3.53;;
73474;SDS011;61711;52.266;10.542;2023-03-23T04:30:22;8.18;;;3.78;;
73474;SDS011;61711;52.266;10.542;2023-03-23T04:32:50;8.32;;;3.38;;
73474;SDS011;61711;52.266;10.542;2023-03-23T04:35:17;6.63;;;3.80;;
73474;SDS011;61711;52.266;10.542;2023-03-23T04:37:44;8.52;;;3.92;;
73474;SDS011;61711;52.266;10.542;2023-03-23T04:40:10;7.18;;;3.78;;
73474;SDS011;61711;52.266;10.542;2023-03-23T04:42:39;6.70;;;3.60;;
73474;SDS011;61711;52.266;10.542;2023-03-23T04:45:07;7.70;;;3.45;;
73474;SDS011;61711;52.266;10.542;2023-03-23T04:47:34;6.30;;;3.33;;
73474;SDS011;61711;52.266;10.542;2023-03-23T04:50:14;5.78;;;3.38;;
73474;SDS011;61711;52.266;10.542;2023-03-23T04:52:40;7.20;;;4.38;;
73474;SDS011;61711;52.266;10.542;2023-03-23T04:55:10;15.77;;;8.88;;
73474;SDS011;61711;52.266;10.542;2023-03-23T04:57:37;9.88;;;3.92;;
73474;SDS011;61711;52.266;10.542;2023-03-23T05:00:03;5.53;;;2.10;;
73474;SDS011;61711;52.266;10.542;2023-03-23T05:02:37;4.60;;;2.50;;
73474;SDS011;61711;52.266;10.542;2023-03-23T05:05:04;3.83;;;2.53;;
73474;SDS011;61711;52.266;10.542;2023-03-23T05:07:31;4.50;;;1.92;;
73474;SDS011;61711;52.266;10.542;2023-03-23T05:09:57;2.88;;;2.10;;
73474;SDS011;61711;52.266;10.542;2023-03-23T05:12:23;3.78;;;2.10;;
73474;SDS011;61711;52.266;10.542;2023-03-23T05:14:49;3.08;;;2.05;;
73474;SDS011;61711;52.266;10.542;2023-03-23T05:17:15;4.93;;;2.40;;
73474;SDS011;61711;52.266;10.542;2023-03-23T05:19:44;4.68;;;2.25;;
73474;SDS011;61711;52.266;10.542;2023-03-23T05:22:12;3.55;;;2.00;;
73474;SDS011;61711;52.266;10.542;2023-03-23T05:24:39;4.10;;;2.08;;
73474;SDS011;61711;52.266;10.542;2023-03-23T05:27:05;3.75;;;1.88;;
73474;SDS011;61711;52.266;10.542;2023-03-23T05:29:33;4.68;;;2.15;;
73474;SDS011;61711;52.266;10.542;2023-03-23T05:32:04;6.55;;;1.90;;
73474;SDS011;61711;52.266;10.542;2023-03-23T05:34:31;4.55;;;1.98;;
73474;SDS011;61711;52.266;10.542;2023-03-23T05:37:00;3.80;;;2.25;;
73474;SDS011;61711;52.266;10.542;2023-03-23T05:39:27;3.63;;;2.00;;
73474;SDS011;61711;52.266;10.542;2023-03-23T05:41:54;3.03;;;2.10;;
73474;SDS011;61711;52.266;10.542;2023-03-23T05:44:20;2.78;;;1.90;;
73474;SDS011;61711;52.266;10.542;2023-03-23T05:46:46;3.30;;;2.10;;
73474;SDS011;61711;52.266;10.542;2023-03-23T05:49:13;3.30;;;1.88;;
73474;SDS011;61711;52.266;10.542;2023-03-23T05:51:40;3.15;;;1.80;;
73474;SDS011;61711;52.266;10.542;2023-03-23T05:54:06;3.38;;;2.05;;
73474;SDS011;61711;52.266;10.542;2023-03-23T05:56:33;2.70;;;1.90;;
73474;SDS011;61711;52.266;10.542;2023-03-23T05:59:00;5.15;;;2.10;;
73474;SDS011;61711;52.266;10.542;2023-03-23T06:01:27;4.10;;;2.08;;
73474;SDS011;61711;52.266;10.542;2023-03-23T06:03:53;3.17;;;1.77;;
73474;SDS011;61711;52.266;10.542;2023-03-23T06:06:23;5.32;;;2.47;;
73474;SDS011;61711;52.266;10.542;2023-03-23T06:08:49;5.47;;;2.88;;
73474;SDS011;61711;52.266;10.542;2023-03-23T06:11:16;5.55;;;2.80;;
73474;SDS011;61711;52.266;10.542;2023-03-23T06:13:42;4.30;;;2.72;;
73474;SDS011;61711;52.266;10.542;2023-03-23T06:16:09;6.63;;;2.60;;
73474;SDS011;61711;52.266;10.542;2023-03-23T06:18:35;3.58;;;2.20;;
73474;SDS011;61711;52.266;10.542;2023-03-23T06:21:03;4.47;;;2.25;;
73474;SDS011;61711;52.266;10.542;2023-03-23T06:23:29;3.67;;;2.00;;
73474;SDS011;61711;52.266;10.542;2023-03-23T06:25:57;5.15;;;1.85;;
73474;SDS011;61711;52.266;10.542;2023-03-23T06:28:24;3.13;;;1.90;;
73474;SDS011;61711;52.266;10.542;2023-03-23T06:30:50;5.60;;;2.90;;
73474;SDS011;61711;52.266;10.542;2023-03-23T06:33:16;4.30;;;2.00;;
73474;SDS011;61711;52.266;10.542;2023-03-23T06:35:42;5.22;;;2.05;;
73474;SDS011;61711;52.266;10.542;2023-03-23T06:38:09;5.60;;;2.47;;
73474;SDS011;61711;52.266;10.542;2023-03-23T06:40:35;4.88;;;2.63;;
73474;SDS011;61711;52.266;10.542;2023-03-23T06:43:01;8.25;;;3.10;;
73474;SDS011;61711;52.266;10.542;2023-03-23T06:45:28;4.05;;;2.40;;
73474;SDS011;61711;52.266;10.542;2023-03-23T06:47:54;4.65;;;2.95;;
73474;SDS011;61711;52.266;10.542;2023-03-23T06:50:21;3.35;;;2.00;;
73474;SDS011;61711;52.266;10.542;2023-03-23T06:52:47;3.33;;;2.00;;
73474;SDS011;61711;52.266;10.542;2023-03-23T06:55:14;3.55;;;1.70;;
73474;SDS011;61711;52.266;10.542;2023-03-23T06:57:40;3.08;;;1.70;;
73474;SDS011;61711;52.266;10.542;2023-03-23T07:00:07;3.22;;;1.70;;
73474;SDS011;61711;52.266;10.542;2023-03-23T07:02:36;3.10;;;1.60;;
73474;SDS011;61711;52.266;10.542;2023-03-23T07:05:02;2.40;;;1.40;;
73474;SDS011;61711;52.266;10.542;2023-03-23T07:07:28;2.42;;;1.80;;
73474;SDS011;61711;52.266;10.542;2023-03-23T07:09:55;4.18;;;1.75;;
73474;SDS011;61711;52.266;10.542;2023-03-23T07:12:21;2.42;;;1.58;;
73474;SDS011;61711;52.266;10.542;2023-03-23T07:14:48;2.80;;;1.70;;
73474;SDS011;61711;52.266;10.542;2023-03-23T07:17:14;3.38;;;1.80;;
73474;SDS011;61711;52.266;10.542;2023-03-23T07:19:40;2.92;;;1.85;;
73474;SDS011;61711;52.266;10.542;2023-03-23T07:22:06;3.50;;;1.52;;
73474;SDS011;61711;52.266;10.542;2023-03-23T07:24:33;5.15;;;2.13;;
73474;SDS011;61711;52.266;10.542;2023-03-23T07:26:59;6.97;;;2.10;;
73474;SDS011;61711;52.266;10.542;2023-03-23T07:29:25;5.22;;;2.63;;
73474;SDS011;61711;52.266;10.542;2023-03-23T07:31:52;4.43;;;2.28;;
73474;SDS011;61711;52.266;10.542;2023-03-23T07:34:18;5.25;;;2.42;;
73474;SDS011;61711;52.266;10.542;2023-03-23T07:36:44;4.22;;;2.50;;
73474;SDS011;61711;52.266;10.542;2023-03-23T07:39:10;7.85;;;3.83;;
73474;SDS011;61711;52.266;10.542;2023-03-23T07:41:37;3.35;;;2.08;;
73474;SDS011;61711;52.266;10.542;2023-03-23T07:44:03;4.90;;;2.50;;
73474;SDS011;61711;52.266;10.542;2023-03-23T07:46:29;4.32;;;2.90;;
73474;SDS011;61711;52.266;10.542;2023-03-23T07:48:55;4.75;;;2.45;;
73474;SDS011;61711;52.266;10.542;2023-03-23T07:51:22;3.17;;;2.50;;
73474;SDS011;61711;52.266;10.542;2023-03-23T07:53:48;3.42;;;2.00;;
73474;SDS011;61711;52.266;10.542;2023-03-23T07:56:15;4.43;;;2.08;;
73474;SDS011;61711;52.266;10.542;2023-03-23T07:58:43;3.17;;;1.92;;
73474;SDS011;61711;52.266;10.542;2023-03-23T08:01:10;2.35;;;1.83;;
73474;SDS011;61711;52.266;10.542;2023-03-23T08:03:36;2.58;;;1.77;;
73474;SDS011;61711;52.266;10.542;2023-03-23T08:06:03;2.83;;;1.80;;
73474;SDS011;61711;52.266;10.542;2023-03-23T08:08:30;2.90;;;1.75;;
73474;SDS011;61711;52.266;10.542;2023-03-23T08:10:56;2.13;;;1.55;;
73474;SDS011;61711;52.266;10.542;2023-03-23T08:13:22;2.65;;;1.65;;
73474;SDS011;61711;52.266;10.542;2023-03-23T08:15:49;2.30;;;1.70;;
73474;SDS011;61711;52.266;10.542;2023-03-23T08:21:19;2.23;;;1.70;;
73474;SDS011;61711;52.266;10.542;2023-03-23T08:23:47;4.53;;;2.00;;
73474;SDS011;61711;52.266;10.542;2023-03-23T08:26:13;2.17;;;1.50;;
73474;SDS011;61711;52.266;10.542;2023-03-23T08:28:40;2.75;;;1.75;;
73474;SDS011;61711;52.266;10.542;2023-03-23T08:31:12;3.65;;;1.80;;
73474;SDS011;61711;52.266;10.542;2023-03-23T08:33:39;2.58;;;1.50;;
73474;SDS011;61711;52.266;10.542;2023-03-23T08:36:06;2.97;;;1.58;;
73474;SDS011;61711;52.266;10.542;2023-03-23T08:38:32;2.17;;;1.60;;
73474;SDS011;61711;52.266;10.542;2023-03-23T08:41:00;3.30;;;1.75;;
73474;SDS011;61711;52.266;10.542;2023-03-23T08:43:27;4.35;;;2.35;;
73474;SDS011;61711;52.266;10.542;2023-03-23T08:45:53;3.00;;;1.85;;
73474;SDS011;61711;52.266;10.542;2023-03-23T08:48:20;5.18;;;1.90;;
73474;SDS011;61711;52.266;10.542;2023-03-23T08:50:47;2.78;;;1.70;;
73474;SDS011;61711;52.266;10.542;2023-03-23T08:53:13;3.53;;;1.67;;
73474;SDS011;61711;52.266;10.542;2023-03-23T08:55:39;3.28;;;1.70;;
73474;SDS011;61711;52.266;10.542;2023-03-23T08:58:06;5.70;;;1.85;;
73474;SDS011;61711;52.266;10.542;2023-03-23T09:00:32;3.20;;;1.70;;
73474;SDS011;61711;52.266;10.542;2023-03-23T09:02:58;2.72;;;1.88;;
73474;SDS011;61711;52.266;10.542;2023-03-23T09:32:53;4.88;;;1.88;;
73474;SDS011;61711;52.266;10.542;2023-03-23T09:35:19;4.25;;;1.70;;
73474;SDS011;61711;52.266;10.542;2023-03-23T09:37:50;3.38;;;1.48;;
73474;SDS011;61711;52.266;10.542;2023-03-23T09:40:17;4.18;;;1.90;;
73474;SDS011;61711;52.266;10.542;2023-03-23T09:43:47;4.45;;;2.10;;
73474;SDS011;61711;52.266;10.542;2023-03-23T09:50:32;5.40;;;1.73;;
73474;SDS011;61711;52.266;10.542;2023-03-23T09:53:22;4.10;;;1.75;;
73474;SDS011;61711;52.266;10.542;2023-03-23T09:55:49;3.33;;;1.70;;
73474;SDS011;61711;52.266;10.542;2023-03-23T09:58:25;2.65;;;1.60;;
73474;SDS011;61711;52.266;10.542;2023-03-23T10:01:01;4.80;;;1.90;;
73474;SDS011;61711;52.266;10.542;2023-03-23T10:03:32;3.65;;;1.70;;
73474;SDS011;61711;52.266;10.542;2023-03-23T10:06:00;3.30;;;1.97;;
73474;SDS011;61711;52.266;10.542;2023-03-23T10:08:27;3.38;;;1.73;;
73474;SDS011;61711;52.266;10.542;2023-03-23T10:13:50;3.55;;;1.60;;
73474;SDS011;61711;52.266;10.542;2023-03-23T10:16:19;2.53;;;1.88;;
73474;SDS011;61711;52.266;10.542;2023-03-23T10:18:51;3.53;;;1.73;;
73474;SDS011;61711;52.266;10.542;2023-03-23T10:21:20;4.20;;;1.73;;
73474;SDS011;61711;52.266;10.542;2023-03-23T10:26:51;5.85;;;1.70;;
73474;SDS011;61711;52.266;10.542;2023-03-23T10:29:21;4.75;;;1.90;;
73474;SDS011;61711;52.266;10.542;2023-03-23T10:34:22;4.72;;;1.90;;
73474;SDS011;61711;52.266;10.542;2023-03-23T10:39:55;4.85;;;1.92;;
73474;SDS011;61711;52.266;10.542;2023-03-23T10:44:51;3.60;;;1.70;;
73474;SDS011;61711;52.266;10.542;2023-03-23T10:47:17;6.30;;;1.85;;
73474;SDS011;61711;52.266;10.542;2023-03-23T10:49:45;3.47;;;1.65;;
73474;SDS011;61711;52.266;10.542;2023-03-23T10:54:39;4.30;;;1.55;;
73474;SDS011;61711;52.266;10.542;2023-03-23T10:57:21;5.72;;;2.03;;
73474;SDS011;61711;52.266;10.542;2023-03-23T10:59:48;2.70;;;1.60;;
73474;SDS011;61711;52.266;10.542;2023-03-23T11:02:16;6.28;;;2.20;;
73474;SDS011;61711;52.266;10.542;2023-03-23T11:04:46;3.03;;;1.63;;
73474;SDS011;61711;52.266;10.542;2023-03-23T11:07:17;2.83;;;1.77;;
73474;SDS011;61711;52.266;10.542;2023-03-23T11:09:59;6.07;;;1.70;;
73474;SDS011;61711;52.266;10.542;2023-03-23T11:12:32;3.80;;;1.80;;
73474;SDS011;61711;52.266;10.542;2023-03-23T11:17:58;3.63;;;1.50;;
73474;SDS011;61711;52.266;10.542;2023-03-23T11:20:25;6.28;;;1.80;;
73474;SDS011;61711;52.266;10.542;2023-03-23T11:22:52;3.53;;;1.60;;
73474;SDS011;61711;52.266;10.542;2023-03-23T11:25:18;7.88;;;1.88;;
73474;SDS011;61711;52.266;10.542;2023-03-23T11:27:44;3.83;;;1.70;;
73474;SDS011;61711;52.266;10.542;2023-03-23T11:30:18;4.97;;;1.85;;
73474;SDS011;61711;52.266;10.542;2023-03-23T11:32:46;4.45;;;2.10;;
73474;SDS011;61711;52.266;10.542;2023-03-23T11:35:23;3.13;;;1.50;;
73474;SDS011;61711;52.266;10.542;2023-03-23T11:37:54;3.60;;;1.50;;
73474;SDS011;61711;52.266;10.542;2023-03-23T11:40:22;5.05;;;1.55;;
73474;SDS011;61711;52.266;10.542;2023-03-23T11:50:26;5.30;;;1.70;;
73474;SDS011;61711;52.266;10.542;2023-03-23T11:55:55;4.65;;;1.60;;
73474;SDS011;61711;52.266;10.542;2023-03-23T11:58:20;3.80;;;1.35;;
73474;SDS011;61711;52.266;10.542;2023-03-23T12:03:16;3.40;;;1.45;;
73474;SDS011;61711;52.266;10.542;2023-03-23T12:05:49;6.53;;;1.77;;
73474;SDS011;61711;52.266;10.542;2023-03-23T12:08:23;3.33;;;1.50;;
73474;SDS011;61711;52.266;10.542;2023-03-23T12:11:02;3.58;;;1.35;;
73474;SDS011;61711;52.266;10.542;2023-03-23T12:16:20;2.80;;;1.50;;
73474;SDS011;61711;52.266;10.542;2023-03-23T12:18:58;4.88;;;1.60;;
73474;SDS011;61711;52.266;10.542;2023-03-23T12:29:27;5.40;;;1.63;;
73474;SDS011;61711;52.266;10.542;2023-03-23T12:31:59;3.28;;;1.70;;
73474;SDS011;61711;52.266;10.542;2023-03-23T12:37:13;4.32;;;1.65;;
73474;SDS011;61711;52.266;10.542;2023-03-23T12:47:58;4.50;;;1.67;;
73474;SDS011;61711;52.266;10.542;2023-03-23T12:50:31;7.75;;;1.65;;
73474;SDS011;61711;52.266;10.542;2023-03-23T12:55:45;4.32;;;1.77;;
73474;SDS011;61711;52.266;10.542;2023-03-23T12:58:19;4.72;;;1.65;;
73474;SDS011;61711;52.266;10.542;2023-03-23T13:03:20;3.90;;;1.55;;
73474;SDS011;61711;52.266;10.542;2023-03-23T13:05:57;5.90;;;1.70;;
73474;SDS011;61711;52.266;10.542;2023-03-23T13:08:33;6.70;;;1.65;;
73474;SDS011;61711;52.266;10.542;2023-03-23T13:11:03;5.07;;;1.35;;
73474;SDS011;61711;52.266;10.542;2023-03-23T13:13:43;4.50;;;1.67;;
73474;SDS011;61711;52.266;10.542;2023-03-23T13:16:13;3.58;;;1.60;;
73474;SDS011;61711;52.266;10.542;2023-03-23T13:18:49;5.15;;;1.70;;
73474;SDS011;61711;52.266;10.542;2023-03-23T13:21:20;3.72;;;1.98;;
73474;SDS011;61711;52.266;10.542;2023-03-23T13:23:53;5.38;;;1.85;;
73474;SDS011;61711;52.266;10.542;2023-03-23T13:26:22;6.65;;;1.77;;
73474;SDS011;61711;52.266;10.542;2023-03-23T13:28:55;5.00;;;1.90;;
73474;SDS011;61711;52.266;10.542;2023-03-23T13:31:24;5.53;;;1.90;;
73474;SDS011;61711;52.266;10.542;2023-03-23T13:33:57;3.70;;;1.85;;
73474;SDS011;61711;52.266;10.542;2023-03-23T13:36:43;3.78;;;1.50;;
73474;SDS011;61711;52.266;10.542;2023-03-23T13:39:24;3.38;;;1.60;;
73474;SDS011;61711;52.266;10.542;2023-03-23T13:44:26;3.72;;;1.67;;
73474;SDS011;61711;52.266;10.542;2023-03-23T13:47:35;2.60;;;1.48;;
73474;SDS011;61711;52.266;10.542;2023-03-23T13:49:46;3.95;;;1.65;;
73474;SDS011;61711;52.266;10.542;2023-03-23T13:52:17;2.50;;;1.50;;
73474;SDS011;61711;52.266;10.542;2023-03-23T13:54:45;3.95;;;2.13;;
73474;SDS011;61711;52.266;10.542;2023-03-23T13:57:20;5.28;;;1.85;;
73474;SDS011;61711;52.266;10.542;2023-03-23T13:59:47;5.63;;;1.92;;
73474;SDS011;61711;52.266;10.542;2023-03-23T14:02:30;2.90;;;1.70;;
73474;SDS011;61711;52.266;10.542;2023-03-23T14:07:23;5.63;;;1.95;;
73474;SDS011;61711;52.266;10.542;2023-03-23T14:09:49;4.47;;;1.60;;
73474;SDS011;61711;52.266;10.542;2023-03-23T14:12:19;4.18;;;1.40;;
73474;SDS011;61711;52.266;10.542;2023-03-23T14:14:48;2.28;;;1.30;;
73474;SDS011;61711;52.266;10.542;2023-03-23T14:17:31;6.13;;;1.10;;
73474;SDS011;61711;52.266;10.542;2023-03-23T14:19:59;1.88;;;0.90;;
73474;SDS011;61711;52.266;10.542;2023-03-23T14:22:26;2.78;;;0.80;;
73474;SDS011;61711;52.266;10.542;2023-03-23T14:25:00;2.55;;;0.93;;
73474;SDS011;61711;52.266;10.542;2023-03-23T14:27:26;2.08;;;0.80;;
73474;SDS011;61711;52.266;10.542;2023-03-23T14:29:59;3.65;;;1.00;;
73474;SDS011;61711;52.266;10.542;2023-03-23T14:32:25;0.93;;;0.80;;
73474;SDS011;61711;52.266;10.542;2023-03-23T14:34:53;2.00;;;1.02;;
73474;SDS011;61711;52.266;10.542;2023-03-23T14:37:20;5.22;;;1.00;;
73474;SDS011;61711;52.266;10.542;2023-03-23T14:39:51;2.83;;;1.00;;
73474;SDS011;61711;52.266;10.542;2023-03-23T14:42:19;3.58;;;1.00;;
73474;SDS011;61711;52.266;10.542;2023-03-23T14:44:47;2.35;;;1.00;;
73474;SDS011;61711;52.266;10.542;2023-03-23T14:47:47;3.08;;;0.90;;
73474;SDS011;61711;52.266;10.542;2023-03-23T14:50:22;6.15;;;1.10;;
73474;SDS011;61711;52.266;10.542;2023-03-23T14:52:48;1.80;;;0.93;;
73474;SDS011;61711;52.266;10.542;2023-03-23T14:55:17;3.58;;;1.30;;
73474;SDS011;61711;52.266;10.542;2023-03-23T14:57:44;1.45;;;1.15;;
73474;SDS011;61711;52.266;10.542;2023-03-23T15:00:30;3.65;;;1.67;;
73474;SDS011;61711;52.266;10.542;2023-03-23T15:02:58;2.03;;;1.52;;
73474;SDS011;61711;52.266;10.542;2023-03-23T15:05:33;3.05;;;1.40;;
73474;SDS011;61711;52.266;10.542;2023-03-23T15:08:10;4.55;;;2.00;;
73474;SDS011;61711;52.266;10.542;2023-03-23T15:10:38;2.85;;;1.40;;
73474;SDS011;61711;52.266;10.542;2023-03-23T15:13:04;2.70;;;1.58;;
73474;SDS011;61711;52.266;10.542;2023-03-23T15:15:33;5.03;;;1.50;;
73474;SDS011;61711;52.266;10.542;2023-03-23T15:17:59;3.33;;;1.30;;
73474;SDS011;61711;52.266;10.542;2023-03-23T15:20:30;3.13;;;1.50;;
73474;SDS011;61711;52.266;10.542;2023-03-23T15:22:56;2.75;;;1.50;;
73474;SDS011;61711;52.266;10.542;2023-03-23T15:25:30;4.10;;;1.60;;
73474;SDS011;61711;52.266;10.542;2023-03-23T15:28:06;3.17;;;1.95;;
73474;SDS011;61711;52.266;10.542;2023-03-23T15:30:33;4.75;;;1.70;;
73474;SDS011;61711;52.266;10.542;2023-03-23T15:33:05;2.78;;;1.58;;
73474;SDS011;61711;52.266;10.542;2023-03-23T15:35:33;2.58;;;1.52;;
73474;SDS011;61711;52.266;10.542;2023-03-23T15:38:06;2.67;;;1.75;;
73474;SDS011;61711;52.266;10.542;2023-03-23T15:40:36;3.03;;;1.60;;
73474;SDS011;61711;52.266;10.542;2023-03-23T15:43:06;3.45;;;1.80;;
73474;SDS011;61711;52.266;10.542;2023-03-23T15:45:32;5.50;;;1.92;;
73474;SDS011;61711;52.266;10.542;2023-03-23T15:48:04;4.05;;;2.08;;
73474;SDS011;61711;52.266;10.542;2023-03-23T15:50:35;3.05;;;1.73;;
73474;SDS011;61711;52.266;10.542;2023-03-23T15:53:19;4.30;;;2.17;;
73474;SDS011;61711;52.266;10.542;2023-03-23T15:55:47;6.90;;;3.50;;
73474;SDS011;61711;52.266;10.542;2023-03-23T15:58:13;4.22;;;2.30;;
73474;SDS011;61711;52.266;10.542;2023-03-23T16:00:40;4.25;;;2.10;;
73474;SDS011;61711;52.266;10.542;2023-03-23T16:03:07;3.13;;;1.85;;
73474;SDS011;61711;52.266;10.542;2023-03-23T16:05:34;4.20;;;2.13;;
73474;SDS011;61711;52.266;10.542;2023-03-23T16:08:00;3.60;;;2.08;;
73474;SDS011;61711;52.266;10.542;2023-03-23T16:10:28;3.60;;;2.15;;
73474;SDS011;61711;52.266;10.542;2023-03-23T16:12:54;3.95;;;1.90;;
73474;SDS011;61711;52.266;10.542;2023-03-23T16:15:20;4.05;;;1.80;;
73474;SDS011;61711;52.266;10.542;2023-03-23T16:17:46;4.50;;;1.70;;
73474;SDS011;61711;52.266;10.542;2023-03-23T16:20:14;2.50;;;1.75;;
73474;SDS011;61711;52.266;10.542;2023-03-23T16:22:40;2.42;;;1.50;;
73474;SDS011;61711;52.266;10.542;2023-03-23T16:25:06;3.60;;;1.77;;
73474;SDS011;61711;52.266;10.542;2023-03-23T16:27:32;1.75;;;1.40;;
73474;SDS011;61711;52.266;10.542;2023-03-23T16:29:58;4.30;;;1.80;;
73474;SDS011;61711;52.266;10.542;2023-03-23T16:32:27;2.67;;;1.42;;
73474;SDS011;61711;52.266;10.542;2023-03-23T16:34:53;3.13;;;1.80;;
73474;SDS011;61711;52.266;10.542;2023-03-23T16:37:19;5.65;;;2.30;;